createdAt,value
2018-07-10T00:00:37.007Z,0
2018-07-10T00:01:37.002Z,0
2018-07-10T00:02:36.992Z,0
2018-07-10T00:03:36.731Z,0
2018-07-10T00:04:36.721Z,0
2018-07-10T00:05:36.983Z,0
2018-07-10T00:06:36.787Z,0
2018-07-10T00:07:36.720Z,0
2018-07-10T00:08:36.718Z,0
2018-07-10T00:09:36.453Z,0
2018-07-10T00:10:36.691Z,0
2018-07-10T00:11:36.948Z,0
2018-07-10T00:12:36.426Z,0
2018-07-10T00:13:36.927Z,0
2018-07-10T00:14:36.927Z,0
2018-07-10T00:15:36.929Z,0
2018-07-10T00:16:36.660Z,0
2018-07-10T00:17:36.652Z,0
2018-07-10T00:18:36.901Z,0
2018-07-10T00:19:36.639Z,0
2018-07-10T00:20:36.645Z,0
2018-07-10T00:21:36.887Z,0
2018-07-10T00:22:36.623Z,0
2018-07-10T00:23:36.620Z,0
2018-07-10T00:24:36.618Z,0
2018-07-10T00:25:36.610Z,0
2018-07-10T00:26:36.857Z,0
2018-07-10T00:27:36.594Z,0
2018-07-10T00:28:36.330Z,0
2018-07-10T00:29:36.587Z,0
2018-07-10T00:30:36.582Z,0
2018-07-10T00:31:36.842Z,0
2018-07-10T00:32:36.569Z,0
2018-07-10T00:33:36.819Z,0
2018-07-10T00:34:36.563Z,0
2018-07-10T00:35:36.297Z,0
2018-07-10T00:36:36.846Z,0
2018-07-10T00:37:36.548Z,0
2018-07-10T00:38:36.791Z,0
2018-07-10T00:39:36.533Z,0
2018-07-10T00:40:36.777Z,0
2018-07-10T00:41:36.263Z,0
2018-07-10T00:42:36.006Z,0
2018-07-10T00:43:36.252Z,0
2018-07-10T00:44:36.762Z,0
2018-07-10T00:45:36.495Z,0
2018-07-10T00:46:36.754Z,0
2018-07-10T00:47:36.778Z,0
2018-07-10T00:48:36.494Z,0
2018-07-10T00:49:36.736Z,0
2018-07-10T00:50:36.729Z,0
2018-07-10T00:51:36.480Z,0
2018-07-10T00:52:36.728Z,0
2018-07-10T00:53:36.715Z,0
2018-07-10T00:54:36.455Z,0
2018-07-10T00:55:36.449Z,0
2018-07-10T00:56:36.182Z,0
2018-07-10T00:57:36.687Z,0
2018-07-10T00:58:36.682Z,0
2018-07-10T00:59:36.426Z,0
2018-07-10T01:00:36.417Z,0
2018-07-10T01:01:36.681Z,0
2018-07-10T01:02:36.402Z,0
2018-07-10T01:03:36.654Z,0
2018-07-10T01:04:36.654Z,0
2018-07-10T01:05:36.647Z,0
2018-07-10T01:06:36.392Z,0
2018-07-10T01:07:36.121Z,0
2018-07-10T01:08:36.373Z,0
2018-07-10T01:09:36.364Z,0
2018-07-10T01:10:36.637Z,0
2018-07-10T01:11:36.620Z,0
2018-07-10T01:12:36.609Z,0
2018-07-10T01:13:36.604Z,0
2018-07-10T01:14:36.647Z,0
2018-07-10T01:15:36.596Z,0
2018-07-10T01:16:36.336Z,0
2018-07-10T01:17:36.324Z,0
2018-07-10T01:18:36.319Z,0
2018-07-10T01:19:36.568Z,0
2018-07-10T01:20:36.566Z,0
2018-07-10T01:21:36.562Z,0
2018-07-10T01:22:36.298Z,0
2018-07-10T01:23:36.291Z,0
2018-07-10T01:24:36.028Z,0
2018-07-10T01:25:35.762Z,0
2018-07-10T01:26:36.530Z,0
2018-07-10T01:27:36.010Z,0
2018-07-10T01:28:36.516Z,0
2018-07-10T01:29:36.258Z,0
2018-07-10T01:30:36.511Z,0
2018-07-10T01:31:36.256Z,0
2018-07-10T01:32:36.516Z,0
2018-07-10T01:33:36.548Z,0
2018-07-10T01:34:36.229Z,0
2018-07-10T01:35:35.969Z,0
2018-07-10T01:36:36.217Z,0
2018-07-10T01:37:36.470Z,0
2018-07-10T01:38:36.468Z,0
2018-07-10T01:39:36.457Z,0
2018-07-10T01:40:36.189Z,0
2018-07-10T01:41:36.194Z,0
2018-07-10T01:42:36.436Z,0
2018-07-10T01:43:35.656Z,0
2018-07-10T01:44:36.431Z,0
2018-07-10T01:45:36.165Z,0
2018-07-10T01:46:35.900Z,0
2018-07-10T01:47:36.409Z,0
2018-07-10T01:48:36.406Z,0
2018-07-10T01:49:36.398Z,0
2018-07-10T01:50:36.391Z,0
2018-07-10T01:51:36.129Z,0
2018-07-10T01:52:35.865Z,0
2018-07-10T01:53:36.118Z,0
2018-07-10T01:54:35.854Z,0
2018-07-10T01:55:36.110Z,0
2018-07-10T01:56:36.705Z,0
2018-07-10T01:57:35.851Z,0
2018-07-10T01:58:36.346Z,0
2018-07-10T01:59:35.826Z,0
2018-07-10T02:00:35.820Z,0
2018-07-10T02:01:36.339Z,0
2018-07-10T02:02:36.064Z,0
2018-07-10T02:03:36.059Z,0
2018-07-10T02:04:36.052Z,0
2018-07-10T02:05:36.088Z,0
2018-07-10T02:06:35.784Z,0
2018-07-10T02:07:36.292Z,0
2018-07-10T02:08:36.031Z,0
2018-07-10T02:09:36.023Z,0
2018-07-10T02:10:36.277Z,0
2018-07-10T02:11:36.017Z,0
2018-07-10T02:12:35.749Z,0
2018-07-10T02:13:36.001Z,0
2018-07-10T02:14:35.997Z,0
2018-07-10T02:15:35.988Z,0
2018-07-10T02:16:36.237Z,0
2018-07-10T02:17:36.228Z,0
2018-07-10T02:18:36.239Z,0
2018-07-10T02:19:35.451Z,0
2018-07-10T02:20:35.965Z,0
2018-07-10T02:21:35.960Z,0
2018-07-10T02:22:36.222Z,0
2018-07-10T02:23:35.941Z,0
2018-07-10T02:24:35.690Z,0
2018-07-10T02:25:35.931Z,0
2018-07-10T02:26:35.931Z,0
2018-07-10T02:27:36.183Z,0
2018-07-10T02:28:35.656Z,0
2018-07-10T02:29:36.166Z,0
2018-07-10T02:30:36.188Z,0
2018-07-10T02:31:35.904Z,0
2018-07-10T02:32:35.642Z,0
2018-07-10T02:33:36.145Z,0
2018-07-10T02:34:35.896Z,0
2018-07-10T02:35:36.153Z,0
2018-07-10T02:36:35.880Z,0
2018-07-10T02:37:36.124Z,0
2018-07-10T02:38:35.606Z,0
2018-07-10T02:39:36.119Z,0
2018-07-10T02:40:36.103Z,0
2018-07-10T02:41:35.846Z,0
2018-07-10T02:42:35.585Z,0
2018-07-10T02:43:36.087Z,0
2018-07-10T02:44:35.823Z,0
2018-07-10T02:45:35.813Z,0
2018-07-10T02:46:36.066Z,0
2018-07-10T02:47:36.070Z,0
2018-07-10T02:48:35.806Z,0
2018-07-10T02:49:35.539Z,0
2018-07-10T02:50:35.534Z,0
2018-07-10T02:51:35.798Z,0
2018-07-10T02:52:36.032Z,0
2018-07-10T02:53:36.031Z,0
2018-07-10T02:54:35.785Z,0
2018-07-10T02:55:35.753Z,0
2018-07-10T02:56:35.827Z,0
2018-07-10T02:57:35.746Z,0
2018-07-10T02:58:36.007Z,0
2018-07-10T02:59:36.052Z,0
2018-07-10T03:00:35.739Z,0
2018-07-10T03:01:35.981Z,0
2018-07-10T03:02:35.988Z,0
2018-07-10T03:03:35.972Z,0
2018-07-10T03:04:35.715Z,0
2018-07-10T03:05:35.713Z,0
2018-07-10T03:06:35.702Z,0
2018-07-10T03:07:35.711Z,0
2018-07-10T03:08:35.424Z,0
2018-07-10T03:09:35.679Z,0
2018-07-10T03:10:35.939Z,0
2018-07-10T03:11:35.670Z,0
2018-07-10T03:12:35.665Z,0
2018-07-10T03:13:35.665Z,0
2018-07-10T03:14:35.399Z,0
2018-07-10T03:15:35.395Z,0
2018-07-10T03:16:35.900Z,0
2018-07-10T03:17:35.644Z,0
2018-07-10T03:18:35.643Z,0
2018-07-10T03:19:35.370Z,0
2018-07-10T03:20:35.620Z,0
2018-07-10T03:21:35.877Z,0
2018-07-10T03:22:35.357Z,0
2018-07-10T03:23:36.023Z,5
2018-07-10T03:24:35.632Z,5
2018-07-10T03:25:35.590Z,5
2018-07-10T03:26:35.585Z,5
2018-07-10T03:27:35.844Z,5
2018-07-10T03:28:35.838Z,5
2018-07-10T03:29:35.823Z,5
2018-07-10T03:30:35.573Z,5
2018-07-10T03:31:35.828Z,5
2018-07-10T03:32:35.300Z,5
2018-07-10T03:33:35.547Z,5
2018-07-10T03:34:35.538Z,5
2018-07-10T03:35:35.797Z,5
2018-07-10T03:36:35.934Z,5
2018-07-10T03:37:35.780Z,5
2018-07-10T03:38:35.514Z,5
2018-07-10T03:39:34.999Z,5
2018-07-10T03:40:35.767Z,5
2018-07-10T03:41:35.759Z,5
2018-07-10T03:42:35.496Z,5
2018-07-10T03:43:35.488Z,5
2018-07-10T03:44:35.748Z,5
2018-07-10T03:45:35.753Z,5
2018-07-10T03:46:35.730Z,5
2018-07-10T03:47:35.726Z,5
2018-07-10T03:48:35.715Z,5
2018-07-10T03:49:35.449Z,5
2018-07-10T03:50:35.445Z,5
2018-07-10T03:51:35.186Z,5
2018-07-10T03:52:35.446Z,10
2018-07-10T03:53:35.170Z,10
2018-07-10T03:54:35.428Z,10
2018-07-10T03:55:35.676Z,10
2018-07-10T03:56:35.673Z,10
2018-07-10T03:57:35.415Z,10
2018-07-10T03:58:35.140Z,10
2018-07-10T03:59:35.395Z,10
2018-07-10T04:00:35.643Z,15
2018-07-10T04:01:35.467Z,15
2018-07-10T04:02:35.635Z,15
2018-07-10T04:03:35.365Z,15
2018-07-10T04:04:35.109Z,15
2018-07-10T04:05:35.612Z,15
2018-07-10T04:06:35.094Z,15
2018-07-10T04:07:35.609Z,15
2018-07-10T04:08:35.609Z,15
2018-07-10T04:09:35.076Z,10
2018-07-10T04:10:35.070Z,10
2018-07-10T04:11:35.590Z,15
2018-07-10T04:12:35.061Z,15
2018-07-10T04:13:35.316Z,15
2018-07-10T04:14:35.573Z,15
2018-07-10T04:15:35.304Z,15
2018-07-10T04:16:35.037Z,15
2018-07-10T04:17:35.544Z,15
2018-07-10T04:18:35.543Z,20
2018-07-10T04:19:34.762Z,20
2018-07-10T04:20:35.524Z,20
2018-07-10T04:21:35.272Z,20
2018-07-10T04:22:35.004Z,20
2018-07-10T04:23:34.996Z,20
2018-07-10T04:24:35.241Z,20
2018-07-10T04:25:35.501Z,20
2018-07-10T04:26:35.232Z,20
2018-07-10T04:27:34.968Z,20
2018-07-10T04:28:35.474Z,20
2018-07-10T04:29:35.481Z,25
2018-07-10T04:30:35.206Z,25
2018-07-10T04:31:35.200Z,20
2018-07-10T04:32:35.452Z,15
2018-07-10T04:33:35.183Z,15
2018-07-10T04:34:34.929Z,15
2018-07-10T04:35:35.442Z,15
2018-07-10T04:36:34.913Z,15
2018-07-10T04:37:35.421Z,20
2018-07-10T04:38:35.410Z,20
2018-07-10T04:39:35.149Z,25
2018-07-10T04:40:35.149Z,25
2018-07-10T04:41:34.884Z,20
2018-07-10T04:42:35.728Z,15
2018-07-10T04:43:35.383Z,15
2018-07-10T04:44:35.124Z,10
2018-07-10T04:45:35.377Z,10
2018-07-10T04:46:35.364Z,15
2018-07-10T04:47:35.099Z,20
2018-07-10T04:48:35.092Z,20
2018-07-10T04:49:35.502Z,20
2018-07-10T04:50:35.334Z,20
2018-07-10T04:51:35.070Z,20
2018-07-10T04:52:34.553Z,20
2018-07-10T04:53:35.320Z,20
2018-07-10T04:54:35.059Z,25
2018-07-10T04:55:35.099Z,30
2018-07-10T04:56:35.044Z,35
2018-07-10T04:57:34.523Z,35
2018-07-10T04:58:35.028Z,35
2018-07-10T04:59:35.027Z,25
2018-07-10T05:00:34.502Z,25
2018-07-10T05:01:35.310Z,20
2018-07-10T05:02:34.745Z,15
2018-07-10T05:03:35.270Z,15
2018-07-10T05:04:34.986Z,15
2018-07-10T05:05:35.239Z,15
2018-07-10T05:06:34.983Z,15
2018-07-10T05:07:34.978Z,15
2018-07-10T05:08:35.221Z,20
2018-07-10T05:09:35.227Z,20
2018-07-10T05:10:34.957Z,25
2018-07-10T05:11:35.197Z,25
2018-07-10T05:12:34.940Z,25
2018-07-10T05:13:34.928Z,25
2018-07-10T05:14:35.186Z,25
2018-07-10T05:15:34.662Z,20
2018-07-10T05:16:34.927Z,20
2018-07-10T05:17:34.743Z,20
2018-07-10T05:18:34.425Z,20
2018-07-10T05:19:34.635Z,20
2018-07-10T05:20:34.630Z,20
2018-07-10T05:21:35.140Z,25
2018-07-10T05:22:35.134Z,35
2018-07-10T05:23:34.867Z,50
2018-07-10T05:24:34.344Z,55
2018-07-10T05:25:35.112Z,55
2018-07-10T05:26:35.105Z,50
2018-07-10T05:27:35.095Z,45
2018-07-10T05:28:35.090Z,35
2018-07-10T05:29:35.096Z,30
2018-07-10T05:30:34.818Z,20
2018-07-10T05:31:35.069Z,20
2018-07-10T05:32:34.554Z,25
2018-07-10T05:33:35.055Z,35
2018-07-10T05:34:34.539Z,45
2018-07-10T05:35:35.042Z,55
2018-07-10T05:36:35.041Z,65
2018-07-10T05:37:35.035Z,65
2018-07-10T05:38:34.524Z,60
2018-07-10T05:39:34.506Z,50
2018-07-10T05:40:35.020Z,45
2018-07-10T05:41:35.014Z,45
2018-07-10T05:42:35.004Z,40
2018-07-10T05:43:34.485Z,45
2018-07-10T05:44:34.737Z,45
2018-07-10T05:45:34.726Z,50
2018-07-10T05:46:35.417Z,55
2018-07-10T05:47:34.718Z,55
2018-07-10T05:48:34.701Z,60
2018-07-10T05:49:34.696Z,65
2018-07-10T05:50:34.696Z,65
2018-07-10T05:51:34.986Z,70
2018-07-10T05:52:34.427Z,75
2018-07-10T05:53:34.676Z,80
2018-07-10T05:54:34.669Z,85
2018-07-10T05:55:34.922Z,90
2018-07-10T05:56:34.920Z,90
2018-07-10T05:57:34.654Z,90
2018-07-10T05:58:35.000Z,85
2018-07-10T05:59:34.911Z,80
2018-07-10T06:00:34.640Z,80
2018-07-10T06:01:34.627Z,85
2018-07-10T06:02:34.624Z,90
2018-07-10T06:03:34.878Z,100
2018-07-10T06:04:34.490Z,105
2018-07-10T06:05:34.605Z,105
2018-07-10T06:06:34.596Z,100
2018-07-10T06:07:34.345Z,90
2018-07-10T06:08:34.849Z,85
2018-07-10T06:09:34.837Z,100
2018-07-10T06:10:34.794Z,120
2018-07-10T06:11:34.823Z,135
2018-07-10T06:12:34.824Z,150
2018-07-10T06:13:34.302Z,165
2018-07-10T06:14:34.296Z,180
2018-07-10T06:15:34.809Z,195
2018-07-10T06:16:34.543Z,200
2018-07-10T06:17:34.795Z,195
2018-07-10T06:18:34.533Z,165
2018-07-10T06:19:34.525Z,135
2018-07-10T06:20:34.521Z,125
2018-07-10T06:21:34.262Z,120
2018-07-10T06:22:34.257Z,130
2018-07-10T06:23:34.510Z,150
2018-07-10T06:24:34.496Z,170
2018-07-10T06:25:34.751Z,180
2018-07-10T06:26:34.497Z,170
2018-07-10T06:27:34.485Z,170
2018-07-10T06:28:34.483Z,175
2018-07-10T06:29:34.479Z,175
2018-07-10T06:30:34.824Z,145
2018-07-10T06:31:34.465Z,115
2018-07-10T06:32:34.201Z,95
2018-07-10T06:33:34.195Z,90
2018-07-10T06:34:34.451Z,90
2018-07-10T06:35:34.441Z,105
2018-07-10T06:36:34.736Z,110
2018-07-10T06:37:34.690Z,110
2018-07-10T06:38:34.169Z,110
2018-07-10T06:39:34.419Z,115
2018-07-10T06:40:34.416Z,120
2018-07-10T06:41:34.161Z,120
2018-07-10T06:42:34.666Z,105
2018-07-10T06:43:34.658Z,90
2018-07-10T06:44:34.393Z,80
2018-07-10T06:45:34.391Z,80
2018-07-10T06:46:34.643Z,90
2018-07-10T06:47:34.386Z,100
2018-07-10T06:48:34.671Z,105
2018-07-10T06:49:34.123Z,100
2018-07-10T06:50:34.369Z,90
2018-07-10T06:51:34.366Z,85
2018-07-10T06:52:35.642Z,85
2018-07-10T06:53:34.311Z,95
2018-07-10T06:54:34.366Z,110
2018-07-10T06:55:34.098Z,125
2018-07-10T06:56:34.592Z,155
2018-07-10T06:57:34.331Z,190
2018-07-10T06:58:34.579Z,210
2018-07-10T06:59:34.345Z,205
2018-07-10T07:00:34.366Z,205
2018-07-10T07:01:34.574Z,215
2018-07-10T07:02:34.303Z,230
2018-07-10T07:03:34.044Z,250
2018-07-10T07:04:34.303Z,280
2018-07-10T07:05:33.781Z,310
2018-07-10T07:06:34.551Z,330
2018-07-10T07:07:34.034Z,360
2018-07-10T07:08:34.021Z,390
2018-07-10T07:09:34.277Z,430
2018-07-10T07:10:34.529Z,440
2018-07-10T07:11:34.530Z,390
2018-07-10T07:12:34.522Z,365
2018-07-10T07:13:34.521Z,320
2018-07-10T07:14:34.512Z,285
2018-07-10T07:15:34.254Z,245
2018-07-10T07:16:34.246Z,260
2018-07-10T07:17:33.986Z,290
2018-07-10T07:18:34.238Z,315
2018-07-10T07:19:34.000Z,320
2018-07-10T07:20:34.486Z,295
2018-07-10T07:21:34.481Z,265
2018-07-10T07:22:33.966Z,245
2018-07-10T07:23:34.476Z,225
2018-07-10T07:24:34.215Z,215
2018-07-10T07:25:33.953Z,210
2018-07-10T07:26:33.697Z,220
2018-07-10T07:27:34.463Z,225
2018-07-10T07:28:34.204Z,225
2018-07-10T07:29:34.529Z,220
2018-07-10T07:30:34.457Z,210
2018-07-10T07:31:34.447Z,210
2018-07-10T07:32:33.941Z,210
2018-07-10T07:33:34.449Z,190
2018-07-10T07:34:34.432Z,165
2018-07-10T07:35:34.431Z,150
2018-07-10T07:36:34.173Z,140
2018-07-10T07:37:33.911Z,125
2018-07-10T07:38:34.169Z,95
2018-07-10T07:39:34.420Z,80
2018-07-10T07:40:33.901Z,80
2018-07-10T07:41:34.166Z,70
2018-07-10T07:42:34.405Z,50
2018-07-10T07:43:34.412Z,40
2018-07-10T07:44:34.404Z,35
2018-07-10T07:45:34.155Z,30
2018-07-10T07:46:34.391Z,25
2018-07-10T07:47:34.145Z,25
2018-07-10T07:48:33.619Z,20
2018-07-10T07:49:33.868Z,20
2018-07-10T07:50:34.381Z,20
2018-07-10T07:51:34.386Z,35
2018-07-10T07:52:34.364Z,45
2018-07-10T07:53:34.109Z,70
2018-07-10T07:54:34.108Z,100
2018-07-10T07:55:34.362Z,115
2018-07-10T07:56:33.833Z,120
2018-07-10T07:57:34.094Z,135
2018-07-10T07:58:34.779Z,140
2018-07-10T07:59:34.102Z,140
2018-07-10T08:00:33.675Z,140
2018-07-10T08:01:33.819Z,145
2018-07-10T08:02:34.329Z,145
2018-07-10T08:03:34.312Z,145
2018-07-10T08:04:34.060Z,160
2018-07-10T08:05:34.318Z,170
2018-07-10T08:06:34.302Z,220
2018-07-10T08:07:34.298Z,215
2018-07-10T08:08:34.028Z,215
2018-07-10T08:09:34.030Z,230
2018-07-10T08:10:34.274Z,205
2018-07-10T08:11:33.754Z,210
2018-07-10T08:12:34.263Z,215
2018-07-10T08:13:34.008Z,205
2018-07-10T08:14:34.250Z,200
2018-07-10T08:15:33.769Z,190
2018-07-10T08:16:33.989Z,195
2018-07-10T08:17:34.239Z,185
2018-07-10T08:18:33.967Z,190
2018-07-10T08:19:34.222Z,180
2018-07-10T08:20:34.211Z,150
2018-07-10T08:21:33.693Z,155
2018-07-10T08:22:34.198Z,155
2018-07-10T08:23:33.934Z,155
2018-07-10T08:24:34.502Z,150
2018-07-10T08:25:34.195Z,165
2018-07-10T08:26:34.185Z,165
2018-07-10T08:27:34.171Z,170
2018-07-10T08:28:33.647Z,170
2018-07-10T08:29:33.897Z,155
2018-07-10T08:30:34.146Z,150
2018-07-10T08:31:34.141Z,140
2018-07-10T08:32:33.876Z,135
2018-07-10T08:33:34.432Z,135
2018-07-10T08:34:34.118Z,135
2018-07-10T08:35:34.117Z,120
2018-07-10T08:36:33.848Z,120
2018-07-10T08:37:34.111Z,120
2018-07-10T08:38:33.840Z,120
2018-07-10T08:39:33.575Z,110
2018-07-10T08:40:33.823Z,100
2018-07-10T08:41:34.077Z,95
2018-07-10T08:42:33.551Z,95
2018-07-10T08:43:33.808Z,90
2018-07-10T08:44:33.808Z,90
2018-07-10T08:45:33.787Z,90
2018-07-10T08:46:34.055Z,95
2018-07-10T08:47:33.775Z,105
2018-07-10T08:48:33.765Z,125
2018-07-10T08:49:33.767Z,165
2018-07-10T08:50:34.057Z,190
2018-07-10T08:51:34.007Z,180
2018-07-10T08:52:33.745Z,165
2018-07-10T08:53:33.473Z,155
2018-07-10T08:54:33.208Z,145
2018-07-10T08:55:33.721Z,140
2018-07-10T08:56:33.462Z,135
2018-07-10T08:57:33.705Z,145
2018-07-10T08:58:33.952Z,155
2018-07-10T08:59:33.690Z,155
2018-07-10T09:00:33.691Z,160
2018-07-10T09:01:33.686Z,160
2018-07-10T09:02:33.671Z,175
2018-07-10T09:03:33.664Z,180
2018-07-10T09:04:33.920Z,170
2018-07-10T09:05:33.657Z,175
2018-07-10T09:06:33.899Z,160
2018-07-10T09:07:33.639Z,145
2018-07-10T09:08:33.896Z,140
2018-07-10T09:09:33.889Z,140
2018-07-10T09:10:33.877Z,140
2018-07-10T09:11:33.612Z,135
2018-07-10T09:12:33.603Z,125
2018-07-10T09:13:33.858Z,125
2018-07-10T09:14:33.598Z,120
2018-07-10T09:15:33.851Z,120
2018-07-10T09:16:33.835Z,125
2018-07-10T09:17:33.581Z,140
2018-07-10T09:18:33.315Z,135
2018-07-10T09:19:33.306Z,130
2018-07-10T09:20:33.556Z,125
2018-07-10T09:21:33.548Z,120
2018-07-10T09:22:33.798Z,120
2018-07-10T09:23:33.799Z,110
2018-07-10T09:24:33.532Z,115
2018-07-10T09:25:33.523Z,110
2018-07-10T09:26:33.263Z,100
2018-07-10T09:27:33.767Z,100
2018-07-10T09:28:33.505Z,100
2018-07-10T09:29:33.751Z,110
2018-07-10T09:30:33.234Z,165
2018-07-10T09:31:33.739Z,165
2018-07-10T09:32:33.736Z,170
2018-07-10T09:33:33.746Z,165
2018-07-10T09:34:33.208Z,145
2018-07-10T09:35:32.944Z,140
2018-07-10T09:36:33.446Z,145
2018-07-10T09:37:33.699Z,145
2018-07-10T09:38:33.435Z,120
2018-07-10T09:39:32.913Z,110
2018-07-10T09:40:33.425Z,110
2018-07-10T09:41:33.686Z,110
2018-07-10T09:42:33.418Z,115
2018-07-10T09:43:33.661Z,115
2018-07-10T09:44:33.412Z,135
2018-07-10T09:45:33.392Z,135
2018-07-10T09:46:33.422Z,130
2018-07-10T09:47:32.860Z,125
2018-07-10T09:48:33.368Z,130
2018-07-10T09:49:33.626Z,130
2018-07-10T09:50:33.617Z,130
2018-07-10T09:51:33.614Z,135
2018-07-10T09:52:33.336Z,155
2018-07-10T09:53:33.336Z,170
2018-07-10T09:54:33.068Z,155
2018-07-10T09:55:33.579Z,160
2018-07-10T09:56:33.324Z,145
2018-07-10T09:57:33.308Z,150
2018-07-10T09:58:33.551Z,160
2018-07-10T09:59:33.554Z,170
2018-07-10T10:00:33.285Z,190
2018-07-10T10:01:33.280Z,260
2018-07-10T10:02:33.541Z,315
2018-07-10T10:03:33.530Z,335
2018-07-10T10:04:33.278Z,325
2018-07-10T10:05:33.508Z,345
2018-07-10T10:06:33.511Z,410
2018-07-10T10:07:33.242Z,405
2018-07-10T10:08:33.935Z,410
2018-07-10T10:09:33.223Z,405
2018-07-10T10:10:32.711Z,355
2018-07-10T10:11:33.477Z,340
2018-07-10T10:12:33.211Z,330
2018-07-10T10:13:32.990Z,300
2018-07-10T10:14:33.201Z,265
2018-07-10T10:15:33.189Z,265
2018-07-10T10:16:33.437Z,270
2018-07-10T10:17:32.949Z,260
2018-07-10T10:18:33.438Z,245
2018-07-10T10:19:33.166Z,235
2018-07-10T10:20:33.425Z,235
2018-07-10T10:21:33.156Z,275
2018-07-10T10:22:32.895Z,235
2018-07-10T10:23:33.397Z,255
2018-07-10T10:24:33.398Z,260
2018-07-10T10:25:33.134Z,255
2018-07-10T10:26:33.384Z,270
2018-07-10T10:27:33.120Z,295
2018-07-10T10:28:33.110Z,310
2018-07-10T10:29:33.109Z,330
2018-07-10T10:30:33.366Z,305
2018-07-10T10:31:33.092Z,280
2018-07-10T10:32:33.349Z,290
2018-07-10T10:33:33.094Z,260
2018-07-10T10:34:33.089Z,275
2018-07-10T10:35:33.339Z,245
2018-07-10T10:36:33.087Z,225
2018-07-10T10:37:33.322Z,220
2018-07-10T10:38:32.796Z,235
2018-07-10T10:39:32.800Z,255
2018-07-10T10:40:33.040Z,280
2018-07-10T10:41:33.602Z,290
2018-07-10T10:42:32.784Z,275
2018-07-10T10:43:33.034Z,280
2018-07-10T10:44:32.765Z,285
2018-07-10T10:45:32.755Z,270
2018-07-10T10:46:32.493Z,235
2018-07-10T10:47:33.009Z,265
2018-07-10T10:48:33.258Z,210
2018-07-10T10:49:32.907Z,280
2018-07-10T10:50:32.988Z,275
2018-07-10T10:51:32.977Z,415
2018-07-10T10:52:32.979Z,330
2018-07-10T10:53:33.236Z,245
2018-07-10T10:54:32.701Z,225
2018-07-10T10:55:33.210Z,310
2018-07-10T10:56:33.203Z,370
2018-07-10T10:57:32.686Z,275
2018-07-10T10:58:32.937Z,340
2018-07-10T10:59:32.684Z,425
2018-07-10T11:00:32.676Z,385
2018-07-10T11:01:32.924Z,380
2018-07-10T11:02:33.366Z,415
2018-07-10T11:03:32.653Z,415
2018-07-10T11:04:32.647Z,400
2018-07-10T11:05:32.646Z,355
2018-07-10T11:06:33.160Z,405
2018-07-10T11:07:33.148Z,485
2018-07-10T11:08:33.154Z,460
2018-07-10T11:09:32.619Z,525
2018-07-10T11:10:32.874Z,360
2018-07-10T11:11:32.604Z,285
2018-07-10T11:12:32.603Z,310
2018-07-10T11:13:32.860Z,385
2018-07-10T11:14:32.338Z,425
2018-07-10T11:15:33.165Z,515
2018-07-10T11:16:32.324Z,515
2018-07-10T11:17:32.835Z,365
2018-07-10T11:18:33.089Z,295
2018-07-10T11:19:32.846Z,300
2018-07-10T11:20:33.077Z,390
2018-07-10T11:21:33.073Z,440
2018-07-10T11:22:33.067Z,350
2018-07-10T11:23:32.819Z,300
2018-07-10T11:24:32.287Z,305
2018-07-10T11:25:32.797Z,245
2018-07-10T11:26:32.800Z,215
2018-07-10T11:27:32.797Z,205
2018-07-10T11:28:33.039Z,200
2018-07-10T11:29:33.034Z,200
2018-07-10T11:30:32.909Z,205
2018-07-10T11:31:33.031Z,210
2018-07-10T11:32:32.770Z,210
2018-07-10T11:33:32.761Z,255
2018-07-10T11:34:32.501Z,260
2018-07-10T11:35:33.011Z,250
2018-07-10T11:36:33.001Z,270
2018-07-10T11:37:32.742Z,240
2018-07-10T11:38:32.736Z,190
2018-07-10T11:39:33.365Z,170
2018-07-10T11:40:32.981Z,180
2018-07-10T11:41:32.975Z,165
2018-07-10T11:42:32.972Z,155
2018-07-10T11:43:32.709Z,150
2018-07-10T11:44:32.701Z,160
2018-07-10T11:45:32.241Z,165
2018-07-10T11:46:32.695Z,160
2018-07-10T11:47:32.690Z,160
2018-07-10T11:48:32.940Z,160
2018-07-10T11:49:32.942Z,155
2018-07-10T11:50:32.930Z,140
2018-07-10T11:51:33.517Z,125
2018-07-10T11:52:32.656Z,110
2018-07-10T11:53:32.396Z,100
2018-07-10T11:54:32.905Z,95
2018-07-10T11:55:32.897Z,90
2018-07-10T11:56:32.634Z,90
2018-07-10T11:57:32.625Z,85
2018-07-10T11:58:32.879Z,90
2018-07-10T11:59:32.618Z,95
2018-07-10T12:00:32.612Z,95
2018-07-10T12:01:32.605Z,100
2018-07-10T12:02:32.348Z,95
2018-07-10T12:03:32.596Z,100
2018-07-10T12:04:32.592Z,105
2018-07-10T12:05:32.580Z,110
2018-07-10T12:06:32.836Z,115
2018-07-10T12:07:32.825Z,125
2018-07-10T12:08:32.562Z,125
2018-07-10T12:09:32.812Z,135
2018-07-10T12:10:32.813Z,135
2018-07-10T12:11:32.288Z,135
2018-07-10T12:12:32.921Z,135
2018-07-10T12:13:32.790Z,125
2018-07-10T12:14:32.780Z,120
2018-07-10T12:15:32.521Z,120
2018-07-10T12:16:31.998Z,145
2018-07-10T12:17:32.767Z,175
2018-07-10T12:18:32.757Z,215
2018-07-10T12:19:32.233Z,250
2018-07-10T12:20:32.745Z,275
2018-07-10T12:21:32.746Z,285
2018-07-10T12:22:32.474Z,285
2018-07-10T12:23:32.727Z,300
2018-07-10T12:24:32.721Z,310
2018-07-10T12:25:32.726Z,310
2018-07-10T12:26:32.450Z,310
2018-07-10T12:27:32.700Z,325
2018-07-10T12:28:32.442Z,345
2018-07-10T12:29:32.434Z,355
2018-07-10T12:30:32.684Z,340
2018-07-10T12:31:32.680Z,300
2018-07-10T12:32:32.161Z,245
2018-07-10T12:33:32.412Z,210
2018-07-10T12:34:32.144Z,190
2018-07-10T12:35:32.658Z,190
2018-07-10T12:36:32.395Z,200
2018-07-10T12:37:32.128Z,225
2018-07-10T12:38:32.670Z,265
2018-07-10T12:39:32.654Z,325
2018-07-10T12:40:32.386Z,355
2018-07-10T12:41:32.674Z,330
2018-07-10T12:42:32.356Z,320
2018-07-10T12:43:32.097Z,325
2018-07-10T12:44:32.347Z,345
2018-07-10T12:45:32.340Z,355
2018-07-10T12:46:32.589Z,350
2018-07-10T12:47:32.596Z,345
2018-07-10T12:48:31.814Z,350
2018-07-10T12:49:32.813Z,355
2018-07-10T12:50:32.577Z,355
2018-07-10T12:51:32.307Z,360
2018-07-10T12:52:32.570Z,380
2018-07-10T12:53:32.297Z,400
2018-07-10T12:54:32.036Z,425
2018-07-10T12:55:32.547Z,425
2018-07-10T12:56:32.543Z,430
2018-07-10T12:57:32.284Z,430
2018-07-10T12:58:32.539Z,415
2018-07-10T12:59:32.281Z,405
2018-07-10T13:00:32.528Z,405
2018-07-10T13:01:32.261Z,430
2018-07-10T13:02:32.005Z,480
2018-07-10T13:03:32.509Z,515
2018-07-10T13:04:32.113Z,545
2018-07-10T13:05:32.556Z,540
2018-07-10T13:06:31.980Z,520
2018-07-10T13:07:32.237Z,500
2018-07-10T13:08:32.231Z,480
2018-07-10T13:09:32.224Z,465
2018-07-10T13:10:31.964Z,445
2018-07-10T13:11:32.218Z,415
2018-07-10T13:12:32.214Z,370
2018-07-10T13:13:32.471Z,365
2018-07-10T13:14:31.948Z,370
2018-07-10T13:15:32.204Z,370
2018-07-10T13:16:32.515Z,370
2018-07-10T13:17:32.195Z,435
2018-07-10T13:18:32.478Z,440
2018-07-10T13:19:32.448Z,430
2018-07-10T13:20:32.443Z,415
2018-07-10T13:21:32.184Z,375
2018-07-10T13:22:32.174Z,325
2018-07-10T13:23:32.171Z,300
2018-07-10T13:24:31.915Z,320
2018-07-10T13:25:32.161Z,365
2018-07-10T13:26:32.159Z,385
2018-07-10T13:27:32.412Z,370
2018-07-10T13:28:32.409Z,370
2018-07-10T13:29:32.406Z,345
2018-07-10T13:30:31.905Z,335
2018-07-10T13:31:32.401Z,345
2018-07-10T13:32:32.392Z,360
2018-07-10T13:33:32.134Z,370
2018-07-10T13:34:32.397Z,380
2018-07-10T13:35:32.122Z,400
2018-07-10T13:36:32.130Z,405
2018-07-10T13:37:31.860Z,415
2018-07-10T13:38:32.375Z,415
2018-07-10T13:39:32.115Z,420
2018-07-10T13:40:31.853Z,430
2018-07-10T13:41:32.104Z,410
2018-07-10T13:42:32.357Z,415
2018-07-10T13:43:32.224Z,425
2018-07-10T13:44:32.094Z,415
2018-07-10T13:45:32.355Z,420
2018-07-10T13:46:32.351Z,425
2018-07-10T13:47:32.346Z,440
2018-07-10T13:48:32.083Z,435
2018-07-10T13:49:32.456Z,445
2018-07-10T13:50:31.815Z,455
2018-07-10T13:51:32.323Z,460
2018-07-10T13:52:31.814Z,445
2018-07-10T13:53:31.821Z,440
2018-07-10T13:54:32.064Z,455
2018-07-10T13:55:32.314Z,470
2018-07-10T13:56:31.801Z,485
2018-07-10T13:57:32.314Z,495
2018-07-10T13:58:32.327Z,525
2018-07-10T13:59:32.325Z,550
2018-07-10T14:00:32.046Z,585
2018-07-10T14:01:31.784Z,620
2018-07-10T14:02:32.318Z,615
2018-07-10T14:03:32.046Z,610
2018-07-10T14:04:32.119Z,595
2018-07-10T14:05:31.514Z,595
2018-07-10T14:06:32.030Z,605
2018-07-10T14:07:32.031Z,610
2018-07-10T14:08:31.775Z,580